Time;durP1;ratioP1;P1;durP2;ratioP2;P2;SDS_P1;SDS_P2;PMS_P1;PMS_P2;Temp;Humidity;BMP_temperature;BMP_pressure;BME280_temperature;BME280_humidity;BME280_pressure;Samples;Min_cycle;Max_cycle;Signal;HPM_P1;HPM_P2
2023/04/10 00:02:07;;;;;;;3.95;3.45;;;21.00;65.40;;;;;;4950467;28;93553;-85
2023/04/10 00:04:33;;;;;;;5.88;4.20;;;20.90;65.30;;;;;;4969091;28;92933;-84
2023/04/10 00:06:59;;;;;;;5.22;3.80;;;21.00;65.40;;;;;;4956070;28;93256;-84
2023/04/10 00:09:25;;;;;;;6.53;3.92;;;21.00;65.30;;;;;;4967145;28;96429;-85
2023/04/10 00:11:50;;;;;;;6.63;4.07;;;21.00;65.10;;;;;;4974391;28;92335;-84
2023/04/10 00:14:21;;;;;;;5.57;3.60;;;21.00;65.20;;;;;;4953329;28;92709;-84
2023/04/10 00:16:48;;;;;;;3.97;3.50;;;20.90;65.10;;;;;;4968678;28;93266;-84
2023/04/10 00:19:13;;;;;;;4.75;3.53;;;20.90;65.10;;;;;;4968047;28;96527;-84
2023/04/10 00:21:39;;;;;;;4.00;3.58;;;20.90;65.10;;;;;;4968864;28;94438;-84
2023/04/10 00:24:05;;;;;;;4.53;3.40;;;20.90;65.10;;;;;;4972101;28;92257;-85
2023/04/10 00:26:30;;;;;;;4.20;3.28;;;20.90;65.30;;;;;;4947587;28;93206;-85
2023/04/10 00:28:56;;;;;;;5.40;3.50;;;20.90;65.00;;;;;;4962538;28;93740;-84
2023/04/10 00:31:21;;;;;;;4.63;3.28;;;20.90;65.30;;;;;;4925092;28;92310;-84
2023/04/10 00:33:47;;;;;;;6.25;3.80;;;20.80;65.20;;;;;;4910036;28;93127;-84
2023/04/10 00:36:13;;;;;;;5.40;3.80;;;20.80;65.00;;;;;;4927786;28;91856;-84
2023/04/10 00:38:38;;;;;;;5.35;3.40;;;20.80;65.00;;;;;;4926660;28;93717;-84
2023/04/10 00:41:05;;;;;;;4.68;3.60;;;20.80;64.90;;;;;;4926439;28;93188;-84
2023/04/10 00:43:30;;;;;;;4.70;3.85;;;20.80;65.00;;;;;;4926298;28;94239;-85
2023/04/10 00:45:56;;;;;;;3.80;3.47;;;20.80;65.10;;;;;;4921766;28;92641;-85
2023/04/10 00:48:22;;;;;;;5.72;3.70;;;20.80;65.10;;;;;;4925327;28;92523;-85
2023/04/10 00:50:48;;;;;;;4.85;3.60;;;20.80;65.10;;;;;;4909262;28;94496;-84
2023/04/10 00:53:13;;;;;;;5.68;3.50;;;20.80;65.00;;;;;;4924718;28;93134;-85
2023/04/10 00:55:39;;;;;;;5.55;3.60;;;20.70;64.90;;;;;;4910344;28;92751;-85
2023/04/10 00:58:05;;;;;;;4.90;3.47;;;20.70;65.00;;;;;;4939392;28;94910;-84
2023/04/10 01:00:31;;;;;;;4.88;3.58;;;20.70;65.10;;;;;;4928750;28;93551;-85
2023/04/10 01:02:59;;;;;;;4.40;3.25;;;20.70;65.20;;;;;;4975007;28;92787;-84
2023/04/10 01:05:33;;;;;;;4.50;3.17;;;20.70;65.00;;;;;;4971923;28;92074;-84
2023/04/10 01:08:12;;;;;;;5.22;4.32;;;20.70;65.10;;;;;;4984226;28;93797;-85
2023/04/10 01:11:02;;;;;;;4.80;3.33;;;20.70;65.10;;;;;;4982645;28;94612;-84
2023/04/10 01:13:38;;;;;;;6.28;3.80;;;20.70;65.10;;;;;;4986279;28;92639;-84
2023/04/10 01:16:14;;;;;;;3.83;3.42;;;20.70;65.00;;;;;;4984862;28;92953;-84
2023/04/10 01:18:42;;;;;;;5.25;3.45;;;20.70;65.10;;;;;;4986469;28;93622;-84
2023/04/10 01:21:11;;;;;;;4.05;3.25;;;20.70;65.10;;;;;;4986926;28;94014;-84
2023/04/10 01:23:58;;;;;;;3.83;3.40;;;20.70;64.80;;;;;;4984046;28;92825;-85
2023/04/10 01:26:58;;;;;;;5.85;3.60;;;20.70;64.80;;;;;;4984183;28;93270;-84
2023/04/10 01:29:28;;;;;;;4.50;3.50;;;20.70;64.90;;;;;;4932985;28;93680;-84
2023/04/10 01:32:00;;;;;;;4.35;3.30;;;20.60;64.90;;;;;;4918558;28;94786;-84
2023/04/10 01:34:39;;;;;;;5.18;3.85;;;20.60;64.90;;;;;;4928901;28;93495;-84
2023/04/10 01:37:11;;;;;;;4.18;3.72;;;20.60;64.90;;;;;;4933299;28;92560;-84
2023/04/10 01:39:40;;;;;;;5.68;3.40;;;20.60;65.10;;;;;;4931666;28;93654;-84
2023/04/10 01:42:07;;;;;;;6.93;3.67;;;20.60;65.00;;;;;;4934019;28;99020;-84
2023/04/10 01:44:37;;;;;;;3.45;3.10;;;20.60;64.90;;;;;;4933379;28;92619;-85
2023/04/10 01:47:06;;;;;;;4.28;3.03;;;20.60;64.90;;;;;;4932316;28;92832;-84
2023/04/10 01:49:33;;;;;;;3.28;2.88;;;20.60;64.90;;;;;;4931139;28;92860;-84
2023/04/10 01:51:59;;;;;;;3.15;2.80;;;20.60;65.00;;;;;;4901859;28;93558;-84
2023/04/10 01:54:26;;;;;;;3.67;3.33;;;20.50;64.90;;;;;;4871380;28;93844;-84
2023/04/10 01:56:52;;;;;;;6.55;3.10;;;20.60;64.90;;;;;;4888039;28;92622;-84
2023/04/10 01:59:18;;;;;;;3.60;3.30;;;20.50;64.70;;;;;;4886372;28;94751;-84
2023/04/10 02:01:44;;;;;;;4.00;3.28;;;20.50;64.70;;;;;;4886120;28;94520;-84
2023/04/10 02:04:09;;;;;;;4.45;2.90;;;20.50;64.90;;;;;;4868289;28;92622;-84
2023/04/10 02:06:50;;;;;;;4.38;3.45;;;20.50;64.90;;;;;;4899823;28;92198;-84
2023/04/10 02:09:24;;;;;;;4.03;3.17;;;20.50;64.80;;;;;;4906234;28;97779;-85
2023/04/10 02:12:00;;;;;;;3.85;2.97;;;20.50;64.60;;;;;;4902489;28;94574;-84
2023/04/10 02:14:28;;;;;;;3.60;3.17;;;20.50;64.70;;;;;;4905957;28;92226;-84
2023/04/10 02:16:55;;;;;;;4.65;3.42;;;20.50;64.60;;;;;;4902325;28;91623;-84
2023/04/10 02:19:24;;;;;;;4.22;3.22;;;20.50;64.60;;;;;;4902916;28;94185;-84
2023/04/10 02:21:50;;;;;;;5.03;3.22;;;20.50;64.50;;;;;;4905875;28;94080;-84
2023/04/10 02:24:17;;;;;;;3.65;2.60;;;20.40;64.50;;;;;;4944798;28;93214;-84
2023/04/10 02:26:52;;;;;;;3.90;3.30;;;20.40;64.40;;;;;;4944612;28;92986;-84
2023/04/10 02:29:18;;;;;;;3.67;3.25;;;20.40;64.40;;;;;;4942811;28;95422;-84
2023/04/10 02:31:45;;;;;;;5.30;3.40;;;20.40;64.50;;;;;;4927440;28;95924;-84
2023/04/10 02:34:11;;;;;;;4.80;3.38;;;20.40;64.40;;;;;;4942421;28;92586;-84
2023/04/10 02:36:38;;;;;;;4.82;3.20;;;20.40;64.50;;;;;;4928257;28;92921;-84
2023/04/10 02:39:04;;;;;;;3.65;3.25;;;20.40;64.50;;;;;;4943593;28;100658;-84
2023/04/10 02:41:30;;;;;;;3.67;3.17;;;20.40;64.40;;;;;;4926725;28;94546;-84
2023/04/10 02:43:56;;;;;;;3.53;3.00;;;20.40;64.60;;;;;;4928364;28;92590;-84
2023/04/10 02:46:22;;;;;;;3.83;3.38;;;20.40;64.40;;;;;;4943232;28;92636;-84
2023/04/10 02:48:47;;;;;;;3.30;3.00;;;20.40;64.40;;;;;;4884387;28;94187;-85
2023/04/10 02:51:13;;;;;;;3.78;3.15;;;20.40;64.30;;;;;;4900716;28;95339;-84
2023/04/10 02:53:39;;;;;;;3.30;3.00;;;20.40;64.40;;;;;;4905468;28;92671;-84
2023/04/10 02:56:06;;;;;;;3.20;2.85;;;20.30;64.50;;;;;;4937139;28;92291;-84
2023/04/10 02:58:32;;;;;;;4.07;3.28;;;20.30;64.30;;;;;;4941218;28;93753;-84
2023/04/10 03:00:58;;;;;;;3.78;3.35;;;20.30;64.30;;;;;;4939043;28;94760;-84
2023/04/10 03:03:24;;;;;;;4.03;3.28;;;20.30;64.40;;;;;;4942779;28;92325;-84
2023/04/10 03:05:50;;;;;;;4.55;3.50;;;20.30;64.60;;;;;;4941228;28;91732;-85
2023/04/10 03:08:16;;;;;;;3.90;3.28;;;20.30;64.40;;;;;;4943084;28;94486;-84
2023/04/10 03:10:47;;;;;;;3.30;3.00;;;20.30;64.50;;;;;;4942802;28;93444;-85
2023/04/10 03:13:13;;;;;;;3.95;3.17;;;20.30;64.40;;;;;;4944396;28;93943;-84
2023/04/10 03:15:39;;;;;;;3.25;2.63;;;20.30;64.30;;;;;;4926102;28;92720;-85
2023/04/10 03:18:05;;;;;;;4.57;3.47;;;20.30;64.20;;;;;;4944911;28;96421;-85
2023/04/10 03:20:38;;;;;;;3.45;3.00;;;20.30;64.40;;;;;;4958450;28;94124;-85
2023/04/10 03:23:05;;;;;;;3.72;2.90;;;20.30;64.20;;;;;;4965902;28;93139;-85
2023/04/10 03:25:33;;;;;;;5.55;3.22;;;20.30;64.20;;;;;;4979171;28;92564;-84
2023/04/10 03:27:59;;;;;;;3.45;3.10;;;20.20;64.30;;;;;;4981690;28;93389;-85
2023/04/10 03:30:24;;;;;;;4.03;3.53;;;20.20;64.20;;;;;;4961106;28;95904;-85
2023/04/10 03:32:50;;;;;;;3.42;2.70;;;20.20;64.20;;;;;;4985121;28;92433;-85
2023/04/10 03:35:16;;;;;;;3.67;3.00;;;20.20;64.10;;;;;;4965650;28;92083;-84
2023/04/10 03:37:42;;;;;;;3.90;2.85;;;20.30;64.20;;;;;;4977307;28;96315;-85
2023/04/10 03:40:09;;;;;;;3.63;3.28;;;20.20;64.10;;;;;;4980265;28;95670;-85
2023/04/10 03:42:35;;;;;;;2.97;2.67;;;20.20;64.00;;;;;;4936448;28;93870;-84
2023/04/10 03:45:03;;;;;;;3.50;3.00;;;20.20;64.00;;;;;;4939357;28;93525;-84
2023/04/10 03:47:29;;;;;;;5.22;3.45;;;20.20;64.00;;;;;;4942163;28;94781;-84
2023/04/10 03:49:55;;;;;;;3.30;3.00;;;20.20;64.00;;;;;;4942183;28;94508;-85
2023/04/10 03:52:21;;;;;;;3.15;2.80;;;20.20;64.00;;;;;;4942435;28;92577;-84
2023/04/10 03:54:47;;;;;;;3.70;2.88;;;20.20;64.00;;;;;;4939030;28;92033;-84
2023/04/10 03:57:12;;;;;;;3.70;3.03;;;20.20;64.10;;;;;;4899717;28;95706;-85
2023/04/10 03:59:38;;;;;;;4.10;3.10;;;20.20;64.00;;;;;;4903618;28;93455;-84
2023/04/10 04:02:05;;;;;;;3.03;2.60;;;20.20;63.90;;;;;;4889026;28;94022;-84
2023/04/10 04:04:30;;;;;;;3.75;3.08;;;20.20;63.90;;;;;;4910168;28;92976;-84
2023/04/10 04:06:56;;;;;;;3.97;3.22;;;20.10;63.80;;;;;;4892088;28;94648;-84
2023/04/10 04:09:22;;;;;;;3.47;3.03;;;20.10;63.90;;;;;;4907612;28;95442;-85
2023/04/10 04:11:47;;;;;;;3.40;3.03;;;20.10;63.90;;;;;;4905531;28;92464;-84
2023/04/10 04:14:13;;;;;;;3.47;3.17;;;20.10;63.90;;;;;;4930855;28;92742;-84
2023/04/10 04:16:38;;;;;;;3.25;2.65;;;20.10;63.60;;;;;;4926159;28;94266;-84
2023/04/10 04:19:04;;;;;;;4.80;3.40;;;20.10;63.50;;;;;;4927857;28;95253;-85
2023/04/10 04:21:30;;;;;;;3.30;3.00;;;20.10;63.70;;;;;;4926783;28;92882;-84
2023/04/10 04:23:55;;;;;;;3.65;3.13;;;20.10;63.70;;;;;;4920428;28;92350;-84
2023/04/10 04:26:23;;;;;;;3.28;2.97;;;20.10;63.80;;;;;;4924536;28;95854;-84
2023/04/10 04:28:49;;;;;;;3.25;2.95;;;20.10;63.60;;;;;;4951505;28;94308;-84
2023/04/10 04:31:15;;;;;;;2.60;2.40;;;20.10;63.60;;;;;;4962939;28;92460;-84
2023/04/10 04:33:40;;;;;;;3.63;3.13;;;20.10;63.80;;;;;;4957527;28;92847;-85
2023/04/10 04:36:06;;;;;;;3.10;2.80;;;20.10;63.80;;;;;;4960846;28;93739;-85
2023/04/10 04:38:32;;;;;;;3.67;2.88;;;20.10;63.80;;;;;;4960277;28;93044;-83
2023/04/10 04:40:58;;;;;;;3.90;3.10;;;20.00;63.80;;;;;;4961352;28;92568;-85
2023/04/10 04:43:23;;;;;;;3.15;2.80;;;20.10;63.90;;;;;;4945155;28;91409;-84
2023/04/10 04:45:49;;;;;;;4.45;3.17;;;20.00;63.80;;;;;;4959448;28;94940;-85
2023/04/10 04:48:15;;;;;;;3.70;3.30;;;20.10;63.90;;;;;;4965592;28;95746;-84
2023/04/10 04:50:40;;;;;;;3.25;2.95;;;20.10;63.80;;;;;;4970881;28;93699;-84
2023/04/10 04:53:07;;;;;;;3.95;2.88;;;20.00;63.50;;;;;;4933759;28;93031;-84
2023/04/10 04:55:33;;;;;;;3.10;2.75;;;20.00;63.60;;;;;;4936469;28;94066;-84
2023/04/10 04:57:59;;;;;;;3.13;2.80;;;20.00;63.80;;;;;;4935431;28;95688;-84
2023/04/10 05:00:24;;;;;;;3.42;2.78;;;20.10;63.90;;;;;;4927862;28;92323;-84
2023/04/10 05:02:50;;;;;;;3.42;2.80;;;20.00;63.70;;;;;;4915517;28;93016;-84
2023/04/10 05:05:16;;;;;;;3.25;2.95;;;20.00;63.70;;;;;;4935222;28;96019;-84
2023/04/10 05:07:41;;;;;;;3.42;3.13;;;20.00;63.60;;;;;;4932431;28;93124;-83
2023/04/10 05:10:08;;;;;;;4.00;2.38;;;20.10;63.60;;;;;;4938614;28;93056;-84
2023/04/10 05:12:33;;;;;;;4.60;2.85;;;20.00;63.50;;;;;;4913863;28;92660;-85
2023/04/10 05:14:59;;;;;;;5.85;3.47;;;20.10;63.20;;;;;;4904501;28;96530;-84
2023/04/10 05:17:25;;;;;;;4.03;3.13;;;20.10;62.40;;;;;;4910446;28;94618;-85
2023/04/10 05:19:50;;;;;;;4.72;3.30;;;20.10;62.00;;;;;;4898254;28;93151;-86
2023/04/10 05:22:16;;;;;;;7.88;3.72;;;20.20;61.30;;;;;;4911536;28;92659;-86
2023/04/10 05:24:42;;;;;;;4.93;2.88;;;20.20;62.60;;;;;;4941138;28;93464;-84
2023/04/10 05:27:07;;;;;;;4.35;3.42;;;20.20;62.40;;;;;;4952871;28;94699;-83
2023/04/10 05:29:33;;;;;;;8.38;3.67;;;20.20;62.80;;;;;;4962167;28;92105;-84
2023/04/10 05:31:59;;;;;;;5.05;3.45;;;20.20;63.20;;;;;;4968522;28;91900;-85
2023/04/10 05:34:25;;;;;;;5.18;3.78;;;20.20;63.40;;;;;;4963521;28;92746;-85
2023/04/10 05:36:50;;;;;;;5.70;4.32;;;20.20;63.60;;;;;;4965217;28;94358;-85
2023/04/10 05:39:16;;;;;;;5.13;4.25;;;20.20;63.60;;;;;;4946656;28;94134;-86
2023/04/10 05:41:41;;;;;;;7.53;3.88;;;20.20;63.50;;;;;;4945483;28;93127;-84
2023/04/10 05:44:07;;;;;;;6.35;4.00;;;20.20;63.10;;;;;;4960035;28;93951;-84
2023/04/10 05:46:33;;;;;;;4.50;3.80;;;20.20;63.50;;;;;;4986704;28;92808;-84
2023/04/10 05:48:59;;;;;;;6.32;4.25;;;20.20;63.50;;;;;;4988766;28;92438;-85
2023/04/10 05:51:25;;;;;;;6.70;4.20;;;20.20;63.50;;;;;;4987591;28;92572;-85
2023/04/10 05:53:50;;;;;;;8.45;4.28;;;20.20;63.30;;;;;;4987459;28;94165;-84
2023/04/10 05:56:16;;;;;;;6.03;4.15;;;20.20;63.40;;;;;;4985970;28;93944;-84
2023/04/10 05:58:42;;;;;;;5.82;4.07;;;20.20;63.50;;;;;;4983873;28;92788;-85
2023/04/10 06:01:08;;;;;;;6.50;4.30;;;20.20;63.40;;;;;;4968382;28;93722;-85
2023/04/10 06:03:33;;;;;;;6.25;4.30;;;20.20;63.40;;;;;;4983509;28;95767;-84
2023/04/10 06:06:01;;;;;;;6.60;4.47;;;20.20;63.50;;;;;;4969903;28;96399;-84
2023/04/10 06:08:27;;;;;;;5.10;4.10;;;20.20;63.40;;;;;;4987497;28;94300;-85
2023/04/10 06:10:52;;;;;;;7.78;4.35;;;20.10;63.30;;;;;;4982968;28;92811;-85
2023/04/10 06:13:18;;;;;;;5.68;4.30;;;20.20;63.50;;;;;;4967944;28;97065;-84
2023/04/10 06:15:44;;;;;;;5.80;4.53;;;20.20;63.40;;;;;;4969785;28;95535;-84
2023/04/10 06:18:09;;;;;;;6.45;4.28;;;20.20;63.10;;;;;;4982820;28;92296;-85
2023/04/10 06:20:35;;;;;;;6.15;4.18;;;20.20;63.10;;;;;;4988303;28;92300;-86
2023/04/10 06:23:01;;;;;;;5.07;3.95;;;20.20;61.80;;;;;;4986949;28;93411;-86
2023/04/10 06:25:27;;;;;;;4.55;3.70;;;20.30;62.60;;;;;;4975360;28;93786;-84
2023/04/10 06:27:53;;;;;;;6.60;4.55;;;20.30;62.70;;;;;;4986752;28;93753;-83
2023/04/10 06:30:18;;;;;;;6.55;4.20;;;20.20;62.70;;;;;;4981288;28;93334;-85
2023/04/10 06:32:44;;;;;;;8.57;4.13;;;20.20;62.90;;;;;;4982530;28;92427;-85
2023/04/10 06:35:10;;;;;;;4.72;3.80;;;20.20;63.20;;;;;;4986950;28;93848;-86
2023/04/10 06:37:36;;;;;;;9.18;4.25;;;20.30;62.90;;;;;;4987889;28;92604;-84
2023/04/10 06:40:07;;;;;;;7.30;4.45;;;20.30;62.40;;;;;;4985725;28;93310;-85
2023/04/10 06:42:33;;;;;;;9.45;3.95;;;20.40;62.80;;;;;;4979980;28;95551;-84
2023/04/10 06:44:59;;;;;;;206.15;49.58;;;20.40;62.70;;;;;;4971326;28;93490;-84
2023/04/10 06:47:26;;;;;;;130.20;27.40;;;20.30;60.90;;;;;;4986370;28;92676;-84
2023/04/10 06:49:51;;;;;;;86.40;21.13;;;20.30;61.40;;;;;;4985582;28;92671;-83
2023/04/10 06:52:17;;;;;;;68.65;15.07;;;20.30;61.90;;;;;;4978792;28;94273;-84
2023/04/10 06:54:43;;;;;;;57.22;15.95;;;20.30;62.10;;;;;;4980599;28;92517;-84
2023/04/10 06:57:09;;;;;;;39.28;12.93;;;20.30;61.70;;;;;;4982458;28;92700;-85
2023/04/10 06:59:35;;;;;;;44.22;12.45;;;20.30;62.40;;;;;;4954011;28;93633;-83
2023/04/10 07:02:02;;;;;;;49.10;12.85;;;20.30;63.00;;;;;;4961095;28;93372;-84
2023/04/10 07:04:27;;;;;;;42.97;12.77;;;20.30;63.30;;;;;;4960010;28;93167;-84
2023/04/10 07:06:53;;;;;;;46.28;13.00;;;20.30;63.40;;;;;;4968015;28;92879;-83
2023/04/10 07:09:19;;;;;;;40.83;14.60;;;20.40;64.00;;;;;;4957397;28;92291;-84
2023/04/10 07:11:45;;;;;;;51.83;13.75;;;20.40;64.10;;;;;;4964335;28;96176;-85
2023/04/10 07:14:10;;;;;;;49.28;14.38;;;20.30;65.30;;;;;;4955718;28;97402;-85
2023/04/10 07:16:36;;;;;;;51.13;13.73;;;20.40;65.40;;;;;;4960438;28;93925;-84
2023/04/10 07:19:02;;;;;;;46.90;13.98;;;20.30;65.50;;;;;;4947905;28;93129;-84
2023/04/10 07:21:28;;;;;;;43.50;13.40;;;20.40;65.90;;;;;;4962580;28;93437;-84
2023/04/10 07:23:55;;;;;;;39.72;12.88;;;20.40;66.20;;;;;;4958843;28;94546;-85
2023/04/10 07:26:20;;;;;;;46.15;16.17;;;20.30;66.90;;;;;;4959514;28;92191;-85
2023/04/10 07:28:46;;;;;;;45.58;15.23;;;20.30;66.90;;;;;;4949460;28;92792;-85
2023/04/10 07:31:12;;;;;;;43.53;17.15;;;20.30;67.40;;;;;;4973963;28;96472;-84
2023/04/10 07:33:38;;;;;;;43.90;16.25;;;20.30;67.50;;;;;;4979549;28;94165;-84
2023/04/10 07:36:04;;;;;;;48.67;16.35;;;20.30;68.00;;;;;;4982217;28;92618;-84
2023/04/10 07:38:33;;;;;;;40.40;15.52;;;20.30;68.30;;;;;;4966165;28;93005;-84
2023/04/10 07:40:59;;;;;;;38.20;13.38;;;20.30;67.90;;;;;;4983281;28;94038;-84
2023/04/10 07:43:25;;;;;;;38.08;13.68;;;20.40;67.60;;;;;;4965742;28;93809;-84
2023/04/10 07:45:51;;;;;;;37.22;14.30;;;20.30;67.40;;;;;;4983760;28;92495;-84
2023/04/10 07:48:17;;;;;;;37.63;13.55;;;20.40;67.60;;;;;;4985023;28;92605;-83
2023/04/10 07:50:43;;;;;;;36.45;12.75;;;20.40;66.60;;;;;;4965443;28;95036;-84
2023/04/10 07:53:09;;;;;;;33.72;13.73;;;20.50;66.60;;;;;;4981591;28;94117;-84
2023/04/10 07:55:47;;;;;;;31.73;13.68;;;20.50;66.50;;;;;;4958447;28;92987;-84
2023/04/10 07:58:13;;;;;;;34.08;12.60;;;20.50;66.10;;;;;;4959486;28;91538;-85
2023/04/10 08:00:39;;;;;;;36.65;13.30;;;20.50;65.60;;;;;;4943183;28;93209;-84
2023/04/10 08:03:05;;;;;;;34.97;13.25;;;20.60;65.70;;;;;;4960464;28;97221;-86
2023/04/10 08:05:31;;;;;;;30.85;13.02;;;20.60;65.30;;;;;;4963051;28;95042;-85
2023/04/10 08:07:58;;;;;;;30.42;12.02;;;20.60;65.40;;;;;;4935773;28;93065;-85
2023/04/10 08:10:24;;;;;;;28.33;11.93;;;20.60;65.10;;;;;;4955439;28;93816;-88
2023/04/10 08:12:49;;;;;;;28.75;11.80;;;20.60;64.90;;;;;;4961373;28;92890;-87
2023/04/10 08:15:16;;;;;;;27.70;11.48;;;20.60;64.80;;;;;;4949091;28;92469;-85
2023/04/10 08:17:42;;;;;;;29.27;12.20;;;20.70;65.10;;;;;;4948688;28;93166;-85
2023/04/10 08:20:10;;;;;;;34.60;12.48;;;20.60;64.80;;;;;;4948226;28;93642;-85
2023/04/10 08:22:36;;;;;;;28.88;11.32;;;20.60;64.60;;;;;;4944246;28;94178;-86
2023/04/10 08:25:03;;;;;;;29.30;11.35;;;20.60;64.30;;;;;;4947931;28;92912;-86
2023/04/10 08:27:29;;;;;;;29.20;11.55;;;20.70;63.90;;;;;;4974283;28;92770;-84
2023/04/10 08:29:55;;;;;;;24.13;10.45;;;20.70;63.00;;;;;;4976177;28;95305;-85
2023/04/10 08:32:21;;;;;;;28.55;11.85;;;20.70;63.50;;;;;;4977861;28;94302;-85
2023/04/10 08:34:48;;;;;;;30.63;11.48;;;20.70;62.00;;;;;;4962441;28;92922;-85
2023/04/10 08:37:14;;;;;;;30.58;10.30;;;20.70;62.80;;;;;;4978361;28;92547;-85
2023/04/10 08:39:40;;;;;;;26.52;10.30;;;20.60;61.20;;;;;;4974271;28;93498;-87
2023/04/10 08:42:06;;;;;;;26.75;11.07;;;20.70;61.90;;;;;;4970284;28;93790;-85
2023/04/10 08:44:34;;;;;;;25.85;11.75;;;20.70;61.60;;;;;;4978125;28;92545;-85
2023/04/10 08:47:01;;;;;;;31.05;10.77;;;20.70;62.00;;;;;;4983874;28;91929;-84
2023/04/10 08:49:39;;;;;;;26.63;10.75;;;20.60;62.00;;;;;;4982847;28;94643;-85
2023/04/10 08:52:08;;;;;;;26.42;10.20;;;20.60;62.10;;;;;;4985904;28;92897;-86
2023/04/10 08:54:38;;;;;;;25.63;10.07;;;20.60;62.60;;;;;;4979596;28;92958;-86
2023/04/10 08:57:06;;;;;;;24.90;10.45;;;20.70;62.40;;;;;;4977060;28;92763;-88
2023/04/10 08:59:31;;;;;;;24.80;10.13;;;20.60;62.80;;;;;;4961541;28;92836;-88
2023/04/10 09:01:58;;;;;;;21.17;9.68;;;20.60;62.90;;;;;;4966316;28;93049;-85
2023/04/10 09:04:24;;;;;;;26.02;10.60;;;20.70;63.20;;;;;;4895142;28;92712;-86
2023/04/10 09:06:52;;;;;;;23.08;10.18;;;20.70;63.40;;;;;;4897574;28;92649;-88
2023/04/10 09:09:18;;;;;;;25.33;10.40;;;20.70;63.40;;;;;;4881719;28;95318;-84
2023/04/10 09:11:55;;;;;;;21.38;9.77;;;20.70;63.20;;;;;;4883814;28;92931;-85
2023/04/10 09:14:24;;;;;;;27.13;10.30;;;20.70;63.60;;;;;;4883571;28;92909;-85
2023/04/10 09:16:51;;;;;;;22.45;9.57;;;20.70;63.90;;;;;;4865689;28;93047;-85
2023/04/10 09:19:32;;;;;;;20.13;9.50;;;20.70;63.80;;;;;;4865610;28;94683;-85
2023/04/10 09:21:58;;;;;;;20.33;9.82;;;20.70;63.80;;;;;;4865609;28;93446;-84
2023/04/10 09:24:25;;;;;;;23.30;9.75;;;20.70;63.90;;;;;;4867277;28;93030;-86
2023/04/10 09:26:51;;;;;;;24.20;9.68;;;20.70;63.90;;;;;;4866038;28;92483;-85
2023/04/10 09:29:17;;;;;;;22.30;9.73;;;20.60;63.90;;;;;;4850022;28;94527;-85
2023/04/10 09:31:43;;;;;;;22.25;9.90;;;20.60;63.90;;;;;;4810813;29;93816;-86
2023/04/10 09:34:17;;;;;;;25.08;9.02;;;20.60;63.90;;;;;;4825311;29;92271;-85
2023/04/10 09:36:55;;;;;;;18.75;9.10;;;20.70;64.10;;;;;;4867357;28;91976;-85
2023/04/10 09:39:31;;;;;;;19.55;8.55;;;20.70;63.90;;;;;;4869408;28;93264;-86
2023/04/10 09:41:57;;;;;;;22.80;9.13;;;20.70;64.00;;;;;;4874072;28;92580;-85
2023/04/10 09:44:36;;;;;;;21.88;9.65;;;20.70;64.40;;;;;;4907109;28;93666;-85
2023/04/10 09:47:17;;;;;;;18.03;9.57;;;20.60;64.30;;;;;;4906729;28;92171;-85
2023/04/10 09:49:54;;;;;;;22.67;9.15;;;20.70;63.80;;;;;;4925050;28;92982;-85
2023/04/10 09:52:27;;;;;;;20.75;9.30;;;20.70;63.40;;;;;;4924784;28;95342;-85
2023/04/10 09:54:57;;;;;;;25.30;9.27;;;20.70;64.20;;;;;;4924750;28;92449;-84
2023/04/10 09:57:25;;;;;;;28.17;9.73;;;20.70;64.30;;;;;;4927823;28;92603;-84
2023/04/10 10:00:00;;;;;;;20.30;9.40;;;20.70;65.00;;;;;;4923771;28;95600;-86
2023/04/10 10:02:29;;;;;;;18.55;8.93;;;20.60;64.80;;;;;;4924897;28;94708;-85
2023/04/10 10:04:59;;;;;;;23.42;9.25;;;20.70;65.30;;;;;;4944652;28;92911;-83
2023/04/10 10:07:25;;;;;;;22.95;9.35;;;20.70;64.70;;;;;;4944501;28;92173;-86
2023/04/10 10:09:52;;;;;;;23.85;9.65;;;20.70;64.80;;;;;;4926937;28;96894;-85
2023/04/10 10:12:26;;;;;;;22.25;9.63;;;20.70;64.90;;;;;;4924697;28;94572;-85
2023/04/10 10:15:06;;;;;;;21.20;9.50;;;20.70;64.90;;;;;;4924906;28;92992;-86
2023/04/10 10:17:42;;;;;;;17.52;9.07;;;20.70;64.90;;;;;;4924597;28;93295;-85
2023/04/10 10:20:10;;;;;;;22.00;9.10;;;20.70;65.10;;;;;;4907675;28;96932;-86
2023/04/10 10:22:37;;;;;;;26.30;9.65;;;20.70;65.20;;;;;;4928494;28;93149;-86
2023/04/10 10:25:03;;;;;;;22.58;9.20;;;20.80;66.00;;;;;;4926346;28;92772;-88
2023/04/10 10:27:33;;;;;;;18.80;8.35;;;20.70;65.40;;;;;;4919586;28;92155;-88
2023/04/10 10:29:59;;;;;;;20.98;9.02;;;20.70;66.30;;;;;;4924659;28;93774;-85
2023/04/10 10:32:26;;;;;;;24.75;9.00;;;20.80;65.80;;;;;;4940830;28;93125;-84
2023/04/10 10:34:52;;;;;;;19.33;9.45;;;20.90;64.60;;;;;;4943334;28;93202;-85
2023/04/10 10:37:20;;;;;;;23.30;8.82;;;20.90;65.10;;;;;;4943743;28;92960;-86
2023/04/10 10:40:19;;;;;;;25.15;9.80;;;20.80;65.50;;;;;;4944028;28;94728;-87
2023/04/10 10:43:03;;;;;;;17.88;9.18;;;20.80;65.70;;;;;;4931421;28;93998;-86
2023/04/10 10:45:47;;;;;;;21.02;9.57;;;20.80;66.10;;;;;;4949248;28;92788;-86
2023/04/10 10:48:13;;;;;;;21.45;9.30;;;20.80;66.10;;;;;;4963109;28;92935;-85
2023/04/10 10:50:59;;;;;;;19.63;9.32;;;20.80;66.10;;;;;;4962583;28;96487;-87
2023/04/10 10:53:30;;;;;;;23.17;10.10;;;20.80;66.20;;;;;;4967128;28;93993;-87
2023/04/10 10:55:56;;;;;;;21.08;9.30;;;20.80;66.00;;;;;;4964861;28;92670;-88
2023/04/10 10:59:00;;;;;;;20.13;9.30;;;20.80;66.00;;;;;;4947819;28;93205;-88
2023/04/10 11:01:26;;;;;;;26.88;11.48;;;20.80;66.30;;;;;;4948869;28;93717;-86
2023/04/10 11:03:52;;;;;;;29.15;10.85;;;20.80;67.20;;;;;;4965070;28;94583;-85
2023/04/10 11:06:19;;;;;;;22.02;10.20;;;20.80;68.00;;;;;;4945027;28;92626;-87
2023/04/10 11:08:47;;;;;;;23.42;9.90;;;20.90;66.40;;;;;;4962354;28;92803;-84
2023/04/10 11:11:20;;;;;;;23.73;11.00;;;20.90;67.40;;;;;;4940962;28;96942;-87
2023/04/10 11:13:51;;;;;;;26.00;11.15;;;20.90;68.00;;;;;;4958302;28;96627;-86
2023/04/10 11:16:19;;;;;;;26.25;11.80;;;20.90;67.60;;;;;;4952700;28;92180;-86
2023/04/10 11:18:45;;;;;;;28.60;11.45;;;20.90;67.50;;;;;;4959013;28;92025;-85
2023/04/10 11:21:18;;;;;;;24.40;10.82;;;20.80;66.40;;;;;;4960333;28;94923;-85
2023/04/10 11:23:49;;;;;;;24.55;9.80;;;20.80;64.90;;;;;;4958548;28;94802;-86
2023/04/10 11:26:42;;;;;;;20.92;9.07;;;20.80;64.00;;;;;;4942267;28;93717;-84
2023/04/10 11:29:26;;;;;;;20.02;9.57;;;20.80;63.20;;;;;;4963328;28;92291;-83
2023/04/10 11:31:55;;;;;;;21.65;9.48;;;20.80;62.80;;;;;;4963195;28;93620;-84
2023/04/10 11:34:22;;;;;;;19.25;9.25;;;20.80;62.40;;;;;;4962224;28;92828;-84
2023/04/10 11:36:47;;;;;;;22.73;9.85;;;20.80;62.90;;;;;;4965327;28;93188;-83
2023/04/10 11:39:18;;;;;;;16.70;7.25;;;20.90;62.80;;;;;;4946631;28;92417;-84
2023/04/10 11:41:45;;;;;;;16.70;8.55;;;20.90;60.80;;;;;;4967133;28;94710;-83
2023/04/10 11:44:15;;;;;;;17.95;9.05;;;20.90;62.10;;;;;;4969503;28;92771;-84
2023/04/10 11:46:45;;;;;;;19.67;8.57;;;20.90;63.00;;;;;;4950657;28;92782;-84
2023/04/10 11:49:11;;;;;;;22.08;9.15;;;20.90;63.50;;;;;;4969644;28;92964;-84
2023/04/10 11:51:38;;;;;;;22.60;9.52;;;20.90;63.60;;;;;;4969082;28;95126;-84
2023/04/10 11:54:15;;;;;;;19.83;9.65;;;20.90;63.60;;;;;;4941166;28;101931;-84
2023/04/10 11:56:43;;;;;;;21.05;9.02;;;20.90;63.70;;;;;;4951735;28;92579;-85
2023/04/10 11:59:18;;;;;;;19.45;9.05;;;20.90;64.10;;;;;;4945453;28;92618;-85
2023/04/10 12:01:45;;;;;;;24.60;8.70;;;20.90;63.90;;;;;;4945762;28;94268;-84
2023/04/10 12:04:18;;;;;;;20.23;8.75;;;20.90;64.10;;;;;;4945130;28;94485;-85
2023/04/10 12:06:46;;;;;;;22.30;8.98;;;20.90;64.00;;;;;;4909781;28;92761;-84
2023/04/10 12:09:13;;;;;;;19.05;8.27;;;20.90;63.90;;;;;;4908564;28;93010;-85
2023/04/10 12:11:47;;;;;;;19.70;8.77;;;20.90;64.00;;;;;;4905745;28;93172;-85
2023/04/10 12:14:12;;;;;;;21.65;9.23;;;20.90;64.10;;;;;;4922720;28;94387;-84
2023/04/10 12:16:38;;;;;;;19.48;8.40;;;20.90;63.80;;;;;;4906855;28;93712;-84
2023/04/10 12:19:04;;;;;;;15.65;8.05;;;20.90;63.70;;;;;;4906927;28;92783;-84
2023/04/10 12:21:30;;;;;;;16.80;8.57;;;21.00;63.90;;;;;;4884102;28;95587;-83
2023/04/10 12:23:56;;;;;;;19.52;8.40;;;21.10;63.60;;;;;;4909973;28;93830;-84
2023/04/10 12:26:21;;;;;;;15.57;8.35;;;21.20;63.60;;;;;;4879852;28;93544;-83
2023/04/10 12:28:53;;;;;;;18.05;7.97;;;21.20;63.40;;;;;;4861771;28;92934;-83
2023/04/10 12:31:29;;;;;;;17.42;7.85;;;21.30;62.70;;;;;;4880227;28;93497;-85
2023/04/10 12:33:56;;;;;;;16.67;7.95;;;21.20;62.70;;;;;;4880755;28;94147;-84
2023/04/10 12:36:31;;;;;;;19.08;8.88;;;21.30;62.90;;;;;;4873289;28;92765;-83
2023/04/10 12:39:01;;;;;;;15.60;7.30;;;21.30;62.90;;;;;;4872276;28;93204;-82
2023/04/10 12:41:32;;;;;;;16.20;7.47;;;21.30;62.30;;;;;;4871369;28;94506;-85
2023/04/10 12:44:12;;;;;;;15.07;7.20;;;21.30;62.30;;;;;;4880065;28;93932;-84
2023/04/10 12:46:39;;;;;;;19.55;7.82;;;21.30;62.40;;;;;;4872172;28;93306;-84